Time;durP1;ratioP1;P1;durP2;ratioP2;P2;SDS_P1;SDS_P2;PMS_P1;PMS_P2;Temp;Humidity;BMP_temperature;BMP_pressure;BME280_temperature;BME280_humidity;BME280_pressure;Samples;Min_cycle;Max_cycle;Signal;HPM_P1;HPM_P2
2024/01/31 00:00:07;;;;;;;215.38;54.88;;;;;;;;;;5089540;28;20640;-45
2024/01/31 00:02:34;;;;;;;214.68;54.92;;;;;;;;;;5085062;28;20178;-45
2024/01/31 00:05:01;;;;;;;212.65;53.03;;;;;;;;;;5084371;28;20181;-45
2024/01/31 00:07:27;;;;;;;215.88;54.95;;;;;;;;;;5085250;28;20203;-45
2024/01/31 00:09:53;;;;;;;213.57;54.27;;;;;;;;;;5084209;28;20670;-44
2024/01/31 00:12:19;;;;;;;214.17;53.87;;;;;;;;;;5085012;28;20464;-45
2024/01/31 00:14:45;;;;;;;213.00;54.00;;;;;;;;;;5085621;28;20537;-45
2024/01/31 00:17:11;;;;;;;215.10;55.13;;;;;;;;;;5092213;28;20417;-45
2024/01/31 00:19:37;;;;;;;214.30;54.47;;;;;;;;;;5090779;28;20592;-44
2024/01/31 00:22:03;;;;;;;213.17;53.30;;;;;;;;;;5087213;28;20204;-45
2024/01/31 00:24:29;;;;;;;216.10;56.05;;;;;;;;;;5088715;28;20893;-45
2024/01/31 00:26:55;;;;;;;213.63;54.40;;;;;;;;;;5088164;28;20180;-45
2024/01/31 00:29:21;;;;;;;215.43;55.40;;;;;;;;;;5088067;28;20447;-45
2024/01/31 00:31:47;;;;;;;213.57;54.80;;;;;;;;;;5089207;28;20439;-45
2024/01/31 00:34:12;;;;;;;213.07;54.10;;;;;;;;;;5086678;28;20446;-45
2024/01/31 00:36:38;;;;;;;214.90;55.73;;;;;;;;;;5085417;28;20509;-44
2024/01/31 00:39:05;;;;;;;214.13;54.80;;;;;;;;;;5093209;28;20417;-44
2024/01/31 00:41:31;;;;;;;213.10;54.35;;;;;;;;;;5089852;28;20245;-45
2024/01/31 00:43:57;;;;;;;214.10;54.15;;;;;;;;;;5087717;28;20171;-47
2024/01/31 00:46:23;;;;;;;214.70;54.60;;;;;;;;;;5088348;28;20175;-45
2024/01/31 00:48:52;;;;;;;214.57;54.17;;;;;;;;;;5089360;28;20180;-44
2024/01/31 00:51:18;;;;;;;214.45;55.17;;;;;;;;;;5087980;28;20200;-45
2024/01/31 00:53:44;;;;;;;214.87;55.50;;;;;;;;;;5089811;28;20257;-45
2024/01/31 00:56:10;;;;;;;215.87;55.60;;;;;;;;;;5093309;28;20438;-46
2024/01/31 00:58:36;;;;;;;214.50;54.60;;;;;;;;;;5090619;28;20403;-45
2024/01/31 01:01:02;;;;;;;215.03;55.10;;;;;;;;;;5088070;28;20443;-45
2024/01/31 01:03:28;;;;;;;216.57;57.30;;;;;;;;;;5087862;28;20463;-45
2024/01/31 01:05:54;;;;;;;212.87;53.43;;;;;;;;;;5088054;28;20502;-45
2024/01/31 01:08:20;;;;;;;214.73;54.77;;;;;;;;;;5087768;28;20402;-45
2024/01/31 01:10:46;;;;;;;216.23;55.67;;;;;;;;;;5089300;28;20423;-45
2024/01/31 01:13:12;;;;;;;214.65;55.42;;;;;;;;;;5092749;28;20468;-45
2024/01/31 01:15:38;;;;;;;213.17;53.93;;;;;;;;;;5089804;28;20266;-45
2024/01/31 01:18:04;;;;;;;212.07;53.80;;;;;;;;;;5086479;28;20563;-45
2024/01/31 01:20:30;;;;;;;212.82;53.70;;;;;;;;;;5088805;28;20910;-45
2024/01/31 01:22:55;;;;;;;212.17;54.03;;;;;;;;;;5087533;28;20203;-45
2024/01/31 01:25:22;;;;;;;212.27;54.17;;;;;;;;;;5087074;28;20875;-45
2024/01/31 01:27:51;;;;;;;213.05;54.42;;;;;;;;;;5088364;28;20416;-45
2024/01/31 01:30:20;;;;;;;213.32;53.13;;;;;;;;;;5092281;28;20176;-45
2024/01/31 01:32:46;;;;;;;218.23;56.88;;;;;;;;;;5090462;28;20206;-44
2024/01/31 01:35:13;;;;;;;214.65;54.60;;;;;;;;;;5085920;28;20175;-45
2024/01/31 01:37:39;;;;;;;212.55;53.58;;;;;;;;;;5090290;28;20171;-45
2024/01/31 01:40:06;;;;;;;213.73;53.90;;;;;;;;;;5082515;28;20203;-45
2024/01/31 01:42:32;;;;;;;213.38;53.70;;;;;;;;;;5087213;28;20535;-45
2024/01/31 01:44:57;;;;;;;214.87;54.50;;;;;;;;;;5087026;28;20166;-45
2024/01/31 01:47:24;;;;;;;213.00;54.17;;;;;;;;;;5091924;28;20440;-45
2024/01/31 01:49:50;;;;;;;215.05;54.63;;;;;;;;;;5085428;28;20444;-45
2024/01/31 01:52:16;;;;;;;213.48;54.33;;;;;;;;;;5091711;28;20265;-44
2024/01/31 01:54:43;;;;;;;213.27;53.13;;;;;;;;;;5085966;28;20187;-45
2024/01/31 01:57:10;;;;;;;216.30;55.10;;;;;;;;;;5087033;28;20167;-45
2024/01/31 01:59:36;;;;;;;214.60;54.15;;;;;;;;;;5086858;28;20170;-46
2024/01/31 02:02:02;;;;;;;218.52;57.80;;;;;;;;;;5087634;28;20212;-46
2024/01/31 02:04:29;;;;;;;216.13;55.65;;;;;;;;;;5086036;28;20171;-45
2024/01/31 02:06:55;;;;;;;212.38;53.60;;;;;;;;;;5086624;28;20179;-45
2024/01/31 02:09:21;;;;;;;212.40;53.67;;;;;;;;;;5085068;28;20184;-45
2024/01/31 02:11:47;;;;;;;213.10;53.37;;;;;;;;;;5090450;28;20211;-46
2024/01/31 02:14:13;;;;;;;214.07;53.87;;;;;;;;;;5086271;28;20464;-45
2024/01/31 02:16:39;;;;;;;215.90;55.17;;;;;;;;;;5087981;28;20910;-45
2024/01/31 02:19:05;;;;;;;214.23;56.97;;;;;;;;;;5086530;28;20927;-45
2024/01/31 02:21:35;;;;;;;212.57;54.37;;;;;;;;;;5086571;28;20422;-45
2024/01/31 02:24:02;;;;;;;213.60;54.55;;;;;;;;;;5086142;28;20438;-45
2024/01/31 02:26:28;;;;;;;216.05;54.95;;;;;;;;;;5090029;28;20544;-44
2024/01/31 02:28:59;;;;;;;213.83;55.50;;;;;;;;;;5091058;28;20218;-45
2024/01/31 02:31:25;;;;;;;213.00;54.33;;;;;;;;;;5078043;28;20429;-47
2024/01/31 02:33:51;;;;;;;212.57;54.60;;;;;;;;;;5090305;28;20210;-45
2024/01/31 02:36:17;;;;;;;213.80;55.33;;;;;;;;;;5086090;28;20494;-45
2024/01/31 02:38:43;;;;;;;211.80;53.90;;;;;;;;;;5085800;28;20410;-45
2024/01/31 02:41:09;;;;;;;213.07;55.42;;;;;;;;;;5085425;28;20513;-44
2024/01/31 02:43:35;;;;;;;212.63;55.70;;;;;;;;;;5089192;28;20588;-45
2024/01/31 02:46:01;;;;;;;214.37;55.57;;;;;;;;;;5077633;28;20435;-45
2024/01/31 02:48:27;;;;;;;212.20;54.93;;;;;;;;;;5084933;28;20405;-46
2024/01/31 02:50:53;;;;;;;214.73;55.60;;;;;;;;;;5087276;28;20440;-44
2024/01/31 02:53:19;;;;;;;215.80;57.13;;;;;;;;;;5089446;28;20481;-44
2024/01/31 02:55:45;;;;;;;212.63;55.22;;;;;;;;;;5086175;28;20410;-45
2024/01/31 02:58:11;;;;;;;213.17;55.20;;;;;;;;;;5084874;28;20552;-44
2024/01/31 03:00:38;;;;;;;216.82;57.75;;;;;;;;;;5083309;28;20483;-45
2024/01/31 03:03:22;;;;;;;214.88;56.00;;;;;;;;;;5083355;28;20176;-45
2024/01/31 03:05:48;;;;;;;215.52;56.67;;;;;;;;;;5075671;28;20521;-44
2024/01/31 03:08:14;;;;;;;215.15;54.85;;;;;;;;;;5088335;28;20605;-45
2024/01/31 03:10:44;;;;;;;213.13;55.07;;;;;;;;;;5086129;28;20182;-45
2024/01/31 03:13:09;;;;;;;212.05;55.10;;;;;;;;;;5082555;28;20549;-44
2024/01/31 03:15:35;;;;;;;211.97;55.27;;;;;;;;;;5085298;28;20199;-45
2024/01/31 03:18:01;;;;;;;213.30;55.70;;;;;;;;;;5083199;28;20455;-45
2024/01/31 03:20:27;;;;;;;213.33;55.87;;;;;;;;;;5083372;28;20814;-45
2024/01/31 03:22:53;;;;;;;213.10;55.28;;;;;;;;;;5091855;28;20434;-45
2024/01/31 03:25:19;;;;;;;213.47;54.80;;;;;;;;;;5087612;28;20184;-45
2024/01/31 03:27:45;;;;;;;214.57;56.03;;;;;;;;;;5081006;28;20521;-45
2024/01/31 03:30:11;;;;;;;213.43;56.13;;;;;;;;;;5090788;28;20412;-45
2024/01/31 03:32:38;;;;;;;214.18;55.80;;;;;;;;;;5087502;28;20461;-45
2024/01/31 03:35:04;;;;;;;213.82;55.90;;;;;;;;;;5082921;28;20172;-44
2024/01/31 03:37:30;;;;;;;214.77;56.47;;;;;;;;;;5083301;28;20172;-45
2024/01/31 03:39:56;;;;;;;213.20;56.20;;;;;;;;;;5084202;28;20173;-45
2024/01/31 03:42:22;;;;;;;212.13;54.57;;;;;;;;;;5083098;28;20459;-45
2024/01/31 03:44:48;;;;;;;214.07;56.15;;;;;;;;;;5084457;28;20410;-44
2024/01/31 03:47:14;;;;;;;215.17;57.67;;;;;;;;;;5083943;28;20244;-45
2024/01/31 03:49:40;;;;;;;213.52;55.22;;;;;;;;;;5073562;28;20411;-45
2024/01/31 03:52:06;;;;;;;214.15;55.83;;;;;;;;;;5091763;28;20286;-45
2024/01/31 03:54:32;;;;;;;213.60;55.87;;;;;;;;;;5087846;28;20222;-44
2024/01/31 03:56:58;;;;;;;213.07;54.77;;;;;;;;;;5086952;28;20473;-45
2024/01/31 03:59:24;;;;;;;213.63;55.17;;;;;;;;;;5083060;28;20406;-45
2024/01/31 04:01:50;;;;;;;216.77;57.13;;;;;;;;;;5087600;28;20426;-45
2024/01/31 04:04:16;;;;;;;214.60;56.88;;;;;;;;;;5091481;28;20175;-44
2024/01/31 04:06:42;;;;;;;213.27;55.33;;;;;;;;;;5089868;28;20180;-44
2024/01/31 04:09:08;;;;;;;215.73;56.55;;;;;;;;;;5085857;28;20176;-45
2024/01/31 04:11:34;;;;;;;214.57;55.97;;;;;;;;;;5088580;28;20240;-45
2024/01/31 04:14:02;;;;;;;216.88;56.40;;;;;;;;;;5086387;28;20458;-45
2024/01/31 04:16:28;;;;;;;216.85;57.00;;;;;;;;;;5084161;28;20581;-45
2024/01/31 04:18:54;;;;;;;215.55;56.13;;;;;;;;;;5086849;28;20180;-45
2024/01/31 04:21:20;;;;;;;217.30;56.45;;;;;;;;;;5091264;28;20276;-45
2024/01/31 04:23:47;;;;;;;216.48;56.05;;;;;;;;;;5083782;28;20222;-45
2024/01/31 04:26:13;;;;;;;217.57;57.50;;;;;;;;;;5091238;28;20236;-45
2024/01/31 04:28:39;;;;;;;216.43;56.67;;;;;;;;;;5089063;28;20211;-45
2024/01/31 04:31:05;;;;;;;217.73;58.77;;;;;;;;;;5092177;28;20237;-46
2024/01/31 04:33:31;;;;;;;220.43;60.53;;;;;;;;;;5085993;28;20469;-45
2024/01/31 04:35:57;;;;;;;216.87;57.47;;;;;;;;;;5087181;28;20406;-45
2024/01/31 04:38:23;;;;;;;218.18;57.47;;;;;;;;;;5086250;28;20830;-45
2024/01/31 04:40:49;;;;;;;217.23;56.80;;;;;;;;;;5088515;28;20205;-46
2024/01/31 04:43:17;;;;;;;216.07;55.50;;;;;;;;;;5087658;28;20406;-45
2024/01/31 04:45:44;;;;;;;215.30;55.78;;;;;;;;;;5089623;28;20430;-45
2024/01/31 04:48:09;;;;;;;214.77;56.70;;;;;;;;;;5078443;28;20256;-45
2024/01/31 04:50:35;;;;;;;215.60;57.20;;;;;;;;;;5086918;28;20222;-45
2024/01/31 04:53:01;;;;;;;214.23;55.73;;;;;;;;;;5085863;28;20452;-45
2024/01/31 04:55:27;;;;;;;215.60;56.33;;;;;;;;;;5085680;28;20408;-45
2024/01/31 04:57:53;;;;;;;218.07;58.90;;;;;;;;;;5086265;28;20169;-44
2024/01/31 05:00:23;;;;;;;217.70;57.63;;;;;;;;;;5090703;28;20415;-45
2024/01/31 05:02:49;;;;;;;218.25;59.50;;;;;;;;;;5088748;28;20478;-45
2024/01/31 05:05:15;;;;;;;217.23;57.15;;;;;;;;;;5086279;28;20782;-45
2024/01/31 05:07:41;;;;;;;218.37;58.27;;;;;;;;;;5088391;28;20180;-45
2024/01/31 05:10:08;;;;;;;217.67;58.80;;;;;;;;;;5085644;28;20434;-45
2024/01/31 05:12:34;;;;;;;217.07;58.45;;;;;;;;;;5085400;28;20454;-46
2024/01/31 05:15:00;;;;;;;216.00;58.17;;;;;;;;;;5085390;28;20171;-45
2024/01/31 05:17:26;;;;;;;218.50;59.50;;;;;;;;;;5089552;28;20443;-45
2024/01/31 05:19:52;;;;;;;217.13;58.57;;;;;;;;;;5082784;28;20460;-45
2024/01/31 05:22:18;;;;;;;218.37;58.70;;;;;;;;;;5090102;28;20524;-45
2024/01/31 05:24:44;;;;;;;219.30;59.60;;;;;;;;;;5088453;28;20410;-45
2024/01/31 05:27:10;;;;;;;217.20;58.77;;;;;;;;;;5085169;28;20406;-45
2024/01/31 05:29:36;;;;;;;216.35;57.08;;;;;;;;;;5084439;28;20416;-45
2024/01/31 05:32:03;;;;;;;217.55;58.45;;;;;;;;;;5086003;28;20504;-45
2024/01/31 05:34:29;;;;;;;216.40;56.40;;;;;;;;;;5084977;28;20169;-44
2024/01/31 05:36:55;;;;;;;218.65;58.05;;;;;;;;;;5085006;28;20545;-45
2024/01/31 05:39:21;;;;;;;218.82;58.25;;;;;;;;;;5089799;28;20175;-45
2024/01/31 05:41:47;;;;;;;218.27;58.10;;;;;;;;;;5088642;28;20541;-45
2024/01/31 05:44:13;;;;;;;217.15;57.03;;;;;;;;;;5084745;28;20410;-45
2024/01/31 05:46:39;;;;;;;219.40;58.63;;;;;;;;;;5085772;28;20208;-45
2024/01/31 05:49:05;;;;;;;217.97;58.60;;;;;;;;;;5084904;28;20181;-45
2024/01/31 05:51:31;;;;;;;220.23;59.30;;;;;;;;;;5084755;28;20432;-45
2024/01/31 05:53:57;;;;;;;220.35;58.97;;;;;;;;;;5084534;28;20462;-45
2024/01/31 05:56:23;;;;;;;217.77;57.57;;;;;;;;;;5089088;28;20170;-45
2024/01/31 05:58:49;;;;;;;217.15;58.35;;;;;;;;;;5088816;28;20892;-45
2024/01/31 06:01:15;;;;;;;217.80;58.22;;;;;;;;;;5081628;28;20265;-45
2024/01/31 06:03:41;;;;;;;218.37;58.13;;;;;;;;;;5087367;28;20172;-45
2024/01/31 06:06:07;;;;;;;217.60;58.80;;;;;;;;;;5084342;28;20777;-45
2024/01/31 06:08:33;;;;;;;219.13;58.50;;;;;;;;;;5084498;28;20864;-45
2024/01/31 06:11:04;;;;;;;219.07;59.15;;;;;;;;;;5084355;28;20419;-45
2024/01/31 06:13:30;;;;;;;223.05;62.90;;;;;;;;;;5073720;28;20541;-45
2024/01/31 06:15:56;;;;;;;219.17;60.27;;;;;;;;;;5081469;28;20183;-45
2024/01/31 06:18:23;;;;;;;217.77;58.60;;;;;;;;;;5088941;28;20957;-45
2024/01/31 06:20:52;;;;;;;218.15;58.40;;;;;;;;;;5088108;28;20539;-45
2024/01/31 06:23:18;;;;;;;218.35;59.13;;;;;;;;;;5083997;28;20204;-44
2024/01/31 06:25:44;;;;;;;218.13;59.97;;;;;;;;;;5084049;28;20214;-45
2024/01/31 06:28:10;;;;;;;218.00;59.67;;;;;;;;;;5084732;28;20891;-45
2024/01/31 06:30:44;;;;;;;215.57;57.70;;;;;;;;;;5086857;28;20272;-45
2024/01/31 06:33:11;;;;;;;218.80;60.42;;;;;;;;;;5079256;28;20469;-45
2024/01/31 06:35:38;;;;;;;214.40;57.03;;;;;;;;;;5084095;28;20645;-45
2024/01/31 06:38:05;;;;;;;215.55;57.38;;;;;;;;;;5088748;28;20181;-45
2024/01/31 06:40:31;;;;;;;218.18;59.40;;;;;;;;;;5085608;28;20518;-44
2024/01/31 06:42:58;;;;;;;218.88;59.63;;;;;;;;;;5084195;28;20258;-45
2024/01/31 06:45:26;;;;;;;215.63;56.30;;;;;;;;;;5084138;28;20176;-45
2024/01/31 06:47:52;;;;;;;218.60;59.72;;;;;;;;;;5079339;28;20648;-45
2024/01/31 06:50:19;;;;;;;219.02;59.80;;;;;;;;;;5083057;28;20665;-45
2024/01/31 06:52:46;;;;;;;218.45;58.88;;;;;;;;;;5084430;28;20225;-45
2024/01/31 06:55:12;;;;;;;220.93;62.63;;;;;;;;;;5083984;28;20179;-45
2024/01/31 06:57:38;;;;;;;218.15;58.67;;;;;;;;;;5080326;28;20181;-45
2024/01/31 07:00:08;;;;;;;219.70;61.10;;;;;;;;;;5087798;28;20208;-45
2024/01/31 07:02:34;;;;;;;218.27;58.75;;;;;;;;;;5085056;28;20337;-45
2024/01/31 07:05:00;;;;;;;219.37;60.67;;;;;;;;;;5082390;28;20269;-45
2024/01/31 07:07:26;;;;;;;218.13;58.40;;;;;;;;;;5070997;28;20431;-44
2024/01/31 07:09:52;;;;;;;219.60;60.00;;;;;;;;;;5084870;28;20418;-45
2024/01/31 07:12:19;;;;;;;217.07;57.87;;;;;;;;;;5078793;28;20458;-45
2024/01/31 07:14:45;;;;;;;218.77;61.15;;;;;;;;;;5097667;28;20429;-45
2024/01/31 07:17:10;;;;;;;218.77;60.70;;;;;;;;;;5076663;28;20221;-44
2024/01/31 07:19:36;;;;;;;221.10;61.27;;;;;;;;;;5067232;28;20415;-45
2024/01/31 07:22:02;;;;;;;220.83;60.57;;;;;;;;;;5073755;28;20513;-45
2024/01/31 07:24:28;;;;;;;221.87;62.67;;;;;;;;;;5073569;28;20449;-45
2024/01/31 07:26:54;;;;;;;220.13;60.08;;;;;;;;;;5070453;28;20485;-44
2024/01/31 07:29:20;;;;;;;218.03;60.10;;;;;;;;;;5072236;28;20169;-45
2024/01/31 07:31:46;;;;;;;218.40;60.07;;;;;;;;;;5073418;28;20439;-46
2024/01/31 07:34:12;;;;;;;218.77;60.73;;;;;;;;;;5077077;28;20458;-45
2024/01/31 07:36:39;;;;;;;216.77;58.00;;;;;;;;;;5083194;28;20901;-45
2024/01/31 07:39:05;;;;;;;219.45;59.95;;;;;;;;;;5083292;28;20396;-45
2024/01/31 07:41:31;;;;;;;217.47;59.90;;;;;;;;;;5066312;28;20266;-45
2024/01/31 07:43:56;;;;;;;217.53;59.97;;;;;;;;;;5071668;28;20406;-45
2024/01/31 07:46:23;;;;;;;218.87;59.93;;;;;;;;;;5088854;28;20452;-45
2024/01/31 07:48:49;;;;;;;217.25;60.03;;;;;;;;;;5070796;28;20409;-45
2024/01/31 07:51:15;;;;;;;217.27;59.97;;;;;;;;;;5076088;28;20287;-45
2024/01/31 07:53:44;;;;;;;217.98;60.08;;;;;;;;;;5071287;28;20227;-45
2024/01/31 07:56:10;;;;;;;220.30;60.80;;;;;;;;;;5072944;28;20188;-45
2024/01/31 07:58:36;;;;;;;219.10;61.13;;;;;;;;;;5085645;28;20172;-45
2024/01/31 08:01:02;;;;;;;218.23;60.10;;;;;;;;;;5082764;28;20537;-45
2024/01/31 08:03:28;;;;;;;221.60;63.33;;;;;;;;;;5082508;28;20412;-45
2024/01/31 08:05:54;;;;;;;217.83;60.50;;;;;;;;;;5083284;28;20413;-45
2024/01/31 08:08:20;;;;;;;218.40;59.95;;;;;;;;;;5082993;28;20407;-44
2024/01/31 08:10:46;;;;;;;218.00;60.17;;;;;;;;;;5082099;28;20602;-44
2024/01/31 08:13:12;;;;;;;218.67;60.17;;;;;;;;;;5087662;28;20450;-45
2024/01/31 08:15:38;;;;;;;215.67;58.10;;;;;;;;;;5085042;28;20402;-45
2024/01/31 08:18:04;;;;;;;218.75;60.42;;;;;;;;;;5082676;28;20508;-44
2024/01/31 08:20:30;;;;;;;217.10;59.40;;;;;;;;;;5073608;28;20178;-45
2024/01/31 08:22:56;;;;;;;217.95;61.35;;;;;;;;;;5072820;28;20277;-45
2024/01/31 08:25:22;;;;;;;216.50;59.27;;;;;;;;;;5072632;28;20652;-45
2024/01/31 08:27:49;;;;;;;217.57;60.00;;;;;;;;;;5074528;28;20417;-45
2024/01/31 08:30:16;;;;;;;215.80;57.80;;;;;;;;;;5087604;28;20220;-45
2024/01/31 08:32:42;;;;;;;220.80;61.80;;;;;;;;;;5074385;28;20283;-44
2024/01/31 08:35:10;;;;;;;217.57;59.27;;;;;;;;;;5074976;28;20215;-45
2024/01/31 08:37:36;;;;;;;217.95;58.90;;;;;;;;;;5073183;28;20435;-45
2024/01/31 08:40:04;;;;;;;217.88;59.55;;;;;;;;;;5082389;28;20536;-45
2024/01/31 08:42:30;;;;;;;217.02;57.42;;;;;;;;;;5086182;28;20184;-44
2024/01/31 08:44:56;;;;;;;214.82;57.65;;;;;;;;;;5085866;28;20183;-45
2024/01/31 08:47:22;;;;;;;217.15;59.10;;;;;;;;;;5090412;28;20192;-45
2024/01/31 08:49:49;;;;;;;216.70;58.63;;;;;;;;;;5083032;28;20208;-45
2024/01/31 08:52:15;;;;;;;215.10;57.35;;;;;;;;;;5092939;28;20205;-44
2024/01/31 08:54:42;;;;;;;218.02;60.20;;;;;;;;;;5090012;28;20327;-46
2024/01/31 08:57:08;;;;;;;215.68;57.22;;;;;;;;;;5085264;28;20620;-45
2024/01/31 08:59:34;;;;;;;215.38;57.85;;;;;;;;;;5079347;28;20654;-44
2024/01/31 09:02:00;;;;;;;216.47;58.53;;;;;;;;;;5087413;28;20218;-44
2024/01/31 09:04:26;;;;;;;215.37;58.53;;;;;;;;;;5084316;28;20407;-44
2024/01/31 09:06:52;;;;;;;215.23;57.10;;;;;;;;;;5087752;28;20763;-45
2024/01/31 09:09:18;;;;;;;219.17;60.67;;;;;;;;;;5087630;28;20404;-45
2024/01/31 09:11:44;;;;;;;216.55;60.92;;;;;;;;;;5090131;28;20434;-45
2024/01/31 09:14:10;;;;;;;216.60;58.13;;;;;;;;;;5095626;28;20532;-44
2024/01/31 09:16:37;;;;;;;217.57;60.70;;;;;;;;;;5087163;28;20181;-45
2024/01/31 09:19:03;;;;;;;216.30;58.90;;;;;;;;;;5087064;28;20188;-45
2024/01/31 09:21:29;;;;;;;215.80;58.67;;;;;;;;;;5086917;28;20414;-45
2024/01/31 09:23:55;;;;;;;217.95;60.10;;;;;;;;;;5085322;28;20575;-45
2024/01/31 09:26:21;;;;;;;219.40;61.83;;;;;;;;;;5086342;28;20188;-45
2024/01/31 09:28:47;;;;;;;219.27;61.75;;;;;;;;;;5074567;28;20173;-45
2024/01/31 09:31:23;;;;;;;219.95;61.55;;;;;;;;;;5074578;28;20204;-45
2024/01/31 09:33:50;;;;;;;219.45;61.13;;;;;;;;;;5076113;28;20263;-44
2024/01/31 09:36:16;;;;;;;219.95;63.35;;;;;;;;;;5080539;28;20178;-44
2024/01/31 09:38:43;;;;;;;221.25;64.07;;;;;;;;;;5083081;28;20178;-45
2024/01/31 09:41:09;;;;;;;221.55;63.70;;;;;;;;;;5084167;28;20552;-45
2024/01/31 09:43:35;;;;;;;222.13;64.40;;;;;;;;;;5080564;28;20184;-44
2024/01/31 09:46:05;;;;;;;222.75;64.38;;;;;;;;;;5074929;28;20451;-45
2024/01/31 09:48:31;;;;;;;222.65;63.33;;;;;;;;;;5090249;28;20614;-45
2024/01/31 09:51:02;;;;;;;222.85;65.20;;;;;;;;;;5091336;28;20242;-45
2024/01/31 09:53:29;;;;;;;227.75;68.70;;;;;;;;;;5087242;28;20660;-44
2024/01/31 09:55:55;;;;;;;222.90;63.75;;;;;;;;;;5083274;28;20188;-45
2024/01/31 09:58:22;;;;;;;220.85;63.28;;;;;;;;;;5077955;28;20200;-46
2024/01/31 10:00:51;;;;;;;223.95;64.65;;;;;;;;;;5094447;28;20231;-45
2024/01/31 10:03:17;;;;;;;222.57;64.50;;;;;;;;;;5094439;28;20177;-44
2024/01/31 10:05:43;;;;;;;224.00;65.45;;;;;;;;;;5083404;28;20188;-45
2024/01/31 10:08:10;;;;;;;224.73;65.90;;;;;;;;;;5089566;28;20690;-45
2024/01/31 10:10:37;;;;;;;225.00;65.85;;;;;;;;;;5094335;28;20565;-46
2024/01/31 10:13:04;;;;;;;223.10;64.90;;;;;;;;;;5094559;28;20205;-45
2024/01/31 10:15:31;;;;;;;224.02;64.88;;;;;;;;;;5094401;28;20169;-46
2024/01/31 10:17:57;;;;;;;221.75;65.03;;;;;;;;;;5094609;28;20730;-46
2024/01/31 10:20:23;;;;;;;222.33;65.00;;;;;;;;;;5094386;28;20169;-45
2024/01/31 10:22:48;;;;;;;223.63;65.17;;;;;;;;;;5093982;28;20953;-46
2024/01/31 10:25:18;;;;;;;224.70;66.17;;;;;;;;;;5093659;28;20411;-47
2024/01/31 10:27:47;;;;;;;225.77;67.60;;;;;;;;;;5094040;28;20403;-44
2024/01/31 10:30:13;;;;;;;225.00;67.18;;;;;;;;;;5090511;28;20181;-47
2024/01/31 10:32:40;;;;;;;223.63;65.28;;;;;;;;;;5081258;28;20680;-45
2024/01/31 10:35:07;;;;;;;224.18;64.90;;;;;;;;;;5093846;28;20166;-46
2024/01/31 10:37:33;;;;;;;224.20;66.10;;;;;;;;;;5087235;28;20178;-45
2024/01/31 10:40:04;;;;;;;225.27;65.60;;;;;;;;;;5054447;28;20167;-44
2024/01/31 10:42:30;;;;;;;224.77;66.00;;;;;;;;;;5094323;28;20192;-46
2024/01/31 10:44:56;;;;;;;225.35;66.50;;;;;;;;;;5093664;28;20218;-45
2024/01/31 10:47:22;;;;;;;225.45;64.72;;;;;;;;;;5089920;28;20170;-46
2024/01/31 10:49:48;;;;;;;225.47;64.60;;;;;;;;;;5088854;28;20169;-46
2024/01/31 10:52:16;;;;;;;226.48;68.57;;;;;;;;;;5084956;28;20434;-47
2024/01/31 10:54:48;;;;;;;226.73;66.63;;;;;;;;;;5084838;28;20177;-45
2024/01/31 10:57:14;;;;;;;225.65;66.07;;;;;;;;;;5086720;28;20169;-46
2024/01/31 10:59:40;;;;;;;228.93;71.00;;;;;;;;;;5084061;28;20193;-45
2024/01/31 11:02:13;;;;;;;228.30;69.65;;;;;;;;;;5084574;28;20209;-45
2024/01/31 11:04:39;;;;;;;228.52;72.18;;;;;;;;;;5087055;28;20170;-45
2024/01/31 11:07:05;;;;;;;227.25;69.78;;;;;;;;;;5089824;28;20184;-45
2024/01/31 11:09:31;;;;;;;226.52;69.50;;;;;;;;;;5086700;28;20166;-45
2024/01/31 11:12:05;;;;;;;228.25;71.85;;;;;;;;;;5079812;28;20285;-45
2024/01/31 11:14:31;;;;;;;222.30;64.70;;;;;;;;;;5083047;28;20199;-46
2024/01/31 11:17:06;;;;;;;223.35;67.03;;;;;;;;;;5084893;28;20644;-44
2024/01/31 11:19:34;;;;;;;222.05;65.47;;;;;;;;;;5084743;28;20645;-46
2024/01/31 11:22:00;;;;;;;223.23;65.65;;;;;;;;;;5084591;28;20194;-45
2024/01/31 11:24:26;;;;;;;223.02;66.05;;;;;;;;;;5088700;28;20172;-45
2024/01/31 11:26:52;;;;;;;224.57;67.87;;;;;;;;;;5082558;28;20170;-45
2024/01/31 11:29:18;;;;;;;222.30;65.07;;;;;;;;;;5089363;28;20393;-45
2024/01/31 11:31:44;;;;;;;227.18;70.93;;;;;;;;;;5087840;28;20416;-45
2024/01/31 11:34:10;;;;;;;224.38;66.25;;;;;;;;;;5084307;28;20212;-45
2024/01/31 11:36:36;;;;;;;233.60;74.27;;;;;;;;;;5081357;28;20165;-44
2024/01/31 11:39:05;;;;;;;224.47;66.97;;;;;;;;;;5076873;28;20564;-47
2024/01/31 11:41:31;;;;;;;225.23;68.55;;;;;;;;;;5084294;28;20488;-46
2024/01/31 11:43:57;;;;;;;225.30;68.07;;;;;;;;;;5083743;28;20684;-46
2024/01/31 11:46:23;;;;;;;227.13;68.68;;;;;;;;;;5086804;28;20401;-46
2024/01/31 11:48:49;;;;;;;226.93;70.47;;;;;;;;;;5086764;28;20223;-46
2024/01/31 11:51:15;;;;;;;227.93;70.70;;;;;;;;;;5075261;28;20309;-45
2024/01/31 11:53:40;;;;;;;227.20;70.47;;;;;;;;;;5082727;28;20463;-46
2024/01/31 11:56:07;;;;;;;227.40;69.80;;;;;;;;;;5083587;28;20417;-45
2024/01/31 11:58:35;;;;;;;226.18;68.60;;;;;;;;;;5083620;28;20399;-46
2024/01/31 12:01:01;;;;;;;221.95;65.57;;;;;;;;;;5084263;28;20229;-46
2024/01/31 12:03:27;;;;;;;229.23;73.50;;;;;;;;;;5084176;28;20595;-46
2024/01/31 12:05:57;;;;;;;224.10;67.63;;;;;;;;;;5069701;28;20204;-45
2024/01/31 12:08:28;;;;;;;225.95;70.40;;;;;;;;;;5086188;28;20180;-45
2024/01/31 12:10:55;;;;;;;225.77;67.50;;;;;;;;;;5091071;28;20209;-45
2024/01/31 12:13:21;;;;;;;229.38;70.85;;;;;;;;;;5095739;28;20471;-45
2024/01/31 12:15:49;;;;;;;223.77;66.82;;;;;;;;;;5096586;28;20201;-46
2024/01/31 12:18:15;;;;;;;229.75;73.47;;;;;;;;;;5096520;28;20664;-46
2024/01/31 12:20:41;;;;;;;228.20;70.07;;;;;;;;;;5096386;28;20177;-45
2024/01/31 12:23:08;;;;;;;224.60;68.38;;;;;;;;;;5078094;28;20182;-45
2024/01/31 12:25:34;;;;;;;224.88;68.88;;;;;;;;;;5092289;28;20181;-46
2024/01/31 12:28:03;;;;;;;224.67;67.87;;;;;;;;;;5096046;28;20202;-46
2024/01/31 12:30:29;;;;;;;223.48;67.00;;;;;;;;;;5095890;28;20415;-45
2024/01/31 12:32:55;;;;;;;223.65;66.47;;;;;;;;;;5096092;28;20599;-45
2024/01/31 12:35:22;;;;;;;224.33;68.40;;;;;;;;;;5095851;28;20173;-44
2024/01/31 12:37:48;;;;;;;226.57;69.28;;;;;;;;;;5096038;28;20903;-46
2024/01/31 12:40:14;;;;;;;224.67;67.20;;;;;;;;;;5096116;28;20199;-45
2024/01/31 12:42:40;;;;;;;224.67;68.10;;;;;;;;;;5095565;28;20558;-44
2024/01/31 12:45:07;;;;;;;224.40;68.63;;;;;;;;;;5096018;28;20480;-45
2024/01/31 12:47:34;;;;;;;223.65;66.32;;;;;;;;;;5091223;28;20423;-45
2024/01/31 12:50:00;;;;;;;224.52;67.07;;;;;;;;;;5075696;28;20178;-47
2024/01/31 12:52:26;;;;;;;223.50;65.47;;;;;;;;;;5068530;28;20288;-45
2024/01/31 12:54:52;;;;;;;227.87;71.80;;;;;;;;;;5087913;28;20407;-46
2024/01/31 12:57:18;;;;;;;225.70;68.63;;;;;;;;;;5087133;28;20407;-46
2024/01/31 12:59:46;;;;;;;226.70;69.72;;;;;;;;;;5088952;28;20174;-46
2024/01/31 13:02:12;;;;;;;224.50;67.18;;;;;;;;;;5092423;28;20193;-45
2024/01/31 13:04:38;;;;;;;227.00;69.60;;;;;;;;;;5084830;28;20170;-45
2024/01/31 13:07:04;;;;;;;225.70;69.80;;;;;;;;;;5092475;28;20400;-46
2024/01/31 13:09:30;;;;;;;224.65;68.93;;;;;;;;;;5089099;28;20431;-46
2024/01/31 13:11:56;;;;;;;223.93;67.32;;;;;;;;;;5086997;28;20194;-45
2024/01/31 13:14:22;;;;;;;225.40;68.57;;;;;;;;;;5086909;28;20197;-44
2024/01/31 13:16:48;;;;;;;220.93;66.30;;;;;;;;;;5088266;28;20499;-47
2024/01/31 13:19:14;;;;;;;223.23;65.90;;;;;;;;;;5086765;28;20412;-46
2024/01/31 13:21:43;;;;;;;225.13;70.33;;;;;;;;;;5089530;28;20435;-45
2024/01/31 13:24:09;;;;;;;224.93;69.13;;;;;;;;;;5081156;28;20404;-44
2024/01/31 13:26:35;;;;;;;224.47;68.53;;;;;;;;;;5086397;28;20195;-44
2024/01/31 13:29:02;;;;;;;224.43;68.30;;;;;;;;;;5095244;28;20467;-45
2024/01/31 13:31:28;;;;;;;223.85;67.75;;;;;;;;;;5095123;28;20232;-46
2024/01/31 13:33:54;;;;;;;224.50;68.90;;;;;;;;;;5095196;28;20228;-46
2024/01/31 13:36:20;;;;;;;223.33;69.30;;;;;;;;;;5095094;28;20403;-45
2024/01/31 13:38:46;;;;;;;226.52;72.07;;;;;;;;;;5095119;28;20461;-45
2024/01/31 13:41:12;;;;;;;224.90;69.60;;;;;;;;;;5094964;28;20197;-45
2024/01/31 13:43:38;;;;;;;224.40;69.87;;;;;;;;;;5095094;28;20237;-45
2024/01/31 13:46:06;;;;;;;227.70;75.45;;;;;;;;;;5093396;28;20419;-44
2024/01/31 13:48:32;;;;;;;225.40;70.93;;;;;;;;;;5086960;28;20166;-46
2024/01/31 13:50:58;;;;;;;223.27;70.87;;;;;;;;;;5086626;28;20202;-46
2024/01/31 13:53:24;;;;;;;226.48;73.85;;;;;;;;;;5086467;28;20454;-45
2024/01/31 13:55:51;;;;;;;222.35;70.97;;;;;;;;;;5083473;28;20554;-44
2024/01/31 13:58:17;;;;;;;223.45;70.55;;;;;;;;;;5083880;28;20536;-45